createdAt,value
2023-04-15T00:00:57.555Z,1.42
2023-04-15T00:03:25.127Z,1.77
2023-04-15T00:05:52.306Z,1.75
2023-04-15T00:08:19.533Z,1.85
2023-04-15T00:10:46.810Z,2.03
2023-04-15T00:13:13.693Z,1.80
2023-04-15T00:15:40.781Z,1.95
2023-04-15T00:18:10.503Z,1.77
2023-04-15T00:20:37.728Z,1.80
2023-04-15T00:23:05.624Z,1.80
2023-04-15T00:25:32.502Z,1.65
2023-04-15T00:27:59.475Z,1.77
2023-04-15T00:30:26.658Z,1.65
2023-04-15T00:32:53.711Z,1.35
2023-04-15T00:35:22.226Z,1.60
2023-04-15T00:37:51.436Z,1.48
2023-04-15T00:40:21.188Z,1.95
2023-04-15T00:42:48.105Z,1.50
2023-04-15T00:45:15.710Z,1.50
2023-04-15T00:47:43.896Z,1.50
2023-04-15T00:50:12.665Z,1.33
2023-04-15T00:52:40.260Z,1.20
2023-04-15T00:55:07.889Z,1.30
2023-04-15T00:57:35.550Z,1.52
2023-04-15T01:00:04.330Z,1.25
2023-04-15T01:02:32.067Z,1.60
2023-04-15T01:04:58.929Z,1.52
2023-04-15T01:07:26.242Z,1.77
2023-04-15T01:09:53.716Z,1.90
2023-04-15T01:12:20.752Z,1.70
2023-04-15T01:14:48.238Z,1.80
2023-04-15T01:17:15.002Z,1.80
2023-04-15T01:19:42.021Z,1.70
2023-04-15T01:22:09.234Z,2.20
2023-04-15T01:24:38.476Z,2.00
2023-04-15T01:27:06.017Z,1.90
2023-04-15T01:29:35.948Z,2.13
2023-04-15T01:32:02.697Z,1.92
2023-04-15T01:34:29.487Z,2.25
2023-04-15T01:36:56.155Z,2.20
2023-04-15T01:39:23.008Z,2.60
2023-04-15T01:41:49.737Z,2.40
2023-04-15T01:44:16.818Z,2.00
2023-04-15T01:46:43.692Z,2.30
2023-04-15T01:49:10.691Z,2.42
2023-04-15T01:51:37.493Z,2.20
2023-04-15T01:54:04.271Z,2.40
2023-04-15T01:56:30.949Z,2.42
2023-04-15T01:58:57.747Z,2.38
2023-04-15T02:01:25.069Z,2.17
2023-04-15T02:03:52.281Z,2.05
2023-04-15T02:06:19.432Z,1.90
2023-04-15T02:08:46.208Z,2.00
2023-04-15T02:11:12.930Z,1.90
2023-04-15T02:13:39.660Z,2.10
2023-04-15T02:16:19.196Z,2.28
2023-04-15T02:18:47.137Z,2.20
2023-04-15T02:21:14.545Z,2.65
2023-04-15T02:23:41.629Z,2.40
2023-04-15T02:26:08.357Z,2.38
2023-04-15T02:28:35.883Z,2.10
2023-04-15T02:31:08.261Z,2.28
2023-04-15T02:33:35.503Z,2.47
2023-04-15T02:36:02.324Z,2.38
2023-04-15T02:38:29.196Z,2.30
2023-04-15T02:40:56.699Z,2.47
2023-04-15T02:43:23.635Z,2.05
2023-04-15T02:45:51.459Z,2.17
2023-04-15T02:48:19.784Z,1.80
2023-04-15T02:50:47.958Z,2.50
2023-04-15T02:53:16.178Z,2.10
2023-04-15T02:55:43.080Z,2.65
2023-04-15T02:58:09.998Z,1.92
2023-04-15T03:00:36.850Z,2.28
2023-04-15T03:03:05.742Z,1.95
2023-04-15T03:05:32.705Z,2.10
2023-04-15T03:08:01.517Z,2.40
2023-04-15T03:10:28.637Z,2.10
2023-04-15T03:12:55.721Z,2.03
2023-04-15T03:15:23.919Z,2.10
2023-04-15T03:17:52.891Z,2.20
2023-04-15T03:20:19.901Z,2.20
2023-04-15T03:22:48.098Z,2.25
2023-04-15T03:25:14.906Z,2.30
2023-04-15T03:27:42.685Z,2.55
2023-04-15T03:30:09.930Z,2.17
2023-04-15T03:32:38.788Z,2.05
2023-04-15T03:35:07.025Z,2.35
2023-04-15T03:37:33.736Z,2.47
2023-04-15T03:40:00.612Z,2.50
2023-04-15T03:42:27.332Z,2.55
2023-04-15T03:44:54.150Z,2.53
2023-04-15T03:47:21.153Z,2.70
2023-04-15T03:49:47.915Z,2.97
2023-04-15T03:52:14.686Z,2.65
2023-04-15T03:54:41.503Z,2.85
2023-04-15T03:57:08.222Z,2.70
2023-04-15T03:59:34.954Z,2.83
2023-04-15T04:02:01.909Z,2.72
2023-04-15T04:04:28.762Z,2.50
2023-04-15T04:06:55.632Z,2.70
2023-04-15T04:09:22.428Z,2.85
2023-04-15T04:11:49.305Z,3.00
2023-04-15T04:14:16.189Z,2.90
2023-04-15T04:16:42.977Z,3.35
2023-04-15T04:19:09.746Z,2.67
2023-04-15T04:21:36.703Z,2.97
2023-04-15T04:24:03.502Z,2.80
2023-04-15T04:26:30.460Z,2.83
2023-04-15T04:28:57.174Z,3.28
2023-04-15T04:31:23.960Z,3.00
2023-04-15T04:33:50.687Z,2.90
2023-04-15T04:36:17.431Z,2.85
2023-04-15T04:38:44.108Z,3.28
2023-04-15T04:41:11.013Z,3.05
2023-04-15T04:43:37.718Z,2.60
2023-04-15T04:46:04.609Z,2.78
2023-04-15T04:48:31.330Z,2.53
2023-04-15T04:50:58.222Z,2.97
2023-04-15T04:53:24.903Z,3.05
2023-04-15T04:55:51.758Z,3.13
2023-04-15T04:58:18.471Z,2.88
2023-04-15T05:00:45.309Z,2.70
2023-04-15T05:03:12.315Z,2.90
2023-04-15T05:05:41.141Z,2.80
2023-04-15T05:08:07.841Z,2.50
2023-04-15T05:10:34.704Z,2.90
2023-04-15T05:13:01.582Z,2.97
2023-04-15T05:15:28.435Z,2.97
2023-04-15T05:17:55.488Z,2.78
2023-04-15T05:20:22.406Z,2.50
2023-04-15T05:22:49.180Z,2.67
2023-04-15T05:25:16.400Z,2.90
2023-04-15T05:27:43.209Z,2.88
2023-04-15T05:30:12.162Z,2.83
2023-04-15T05:32:40.424Z,3.00
2023-04-15T05:35:08.149Z,2.83
2023-04-15T05:37:34.876Z,2.58
2023-04-15T05:40:01.632Z,3.10
2023-04-15T05:42:28.446Z,3.00
2023-04-15T05:44:55.208Z,3.00
2023-04-15T05:47:22.238Z,3.05
2023-04-15T05:49:49.006Z,2.70
2023-04-15T05:52:15.649Z,2.58
2023-04-15T05:54:42.320Z,2.85
2023-04-15T05:57:09.031Z,2.35
2023-04-15T05:59:36.148Z,2.78
2023-04-15T06:02:03.019Z,2.40
2023-04-15T06:04:29.843Z,2.60
2023-04-15T06:06:56.829Z,2.72
2023-04-15T06:09:23.828Z,2.45
2023-04-15T06:11:52.128Z,2.40
2023-04-15T06:14:22.312Z,2.47
2023-04-15T06:16:49.130Z,2.25
2023-04-15T06:19:16.049Z,3.13
2023-04-15T06:21:42.982Z,2.50
2023-04-15T06:24:09.788Z,2.53
2023-04-15T06:26:36.479Z,2.30
2023-04-15T06:29:03.438Z,2.42
2023-04-15T06:31:30.761Z,2.75
2023-04-15T06:33:57.513Z,3.15
2023-04-15T06:36:24.237Z,2.88
2023-04-15T06:38:51.125Z,2.92
2023-04-15T06:41:18.280Z,2.25
2023-04-15T06:43:45.002Z,2.60
2023-04-15T06:46:11.842Z,2.72
2023-04-15T06:48:38.966Z,2.33
2023-04-15T06:51:06.212Z,2.08
2023-04-15T06:53:32.916Z,2.10
2023-04-15T06:56:00.344Z,2.40
2023-04-15T06:58:27.278Z,2.38
2023-04-15T07:00:54.068Z,2.63
2023-04-15T07:03:20.854Z,2.88
2023-04-15T07:05:47.725Z,2.90
2023-04-15T07:08:14.797Z,2.53
2023-04-15T07:10:41.536Z,2.08
2023-04-15T07:13:08.994Z,2.20
2023-04-15T07:15:35.896Z,2.05
2023-04-15T07:18:02.762Z,1.80
2023-04-15T07:20:29.679Z,1.80
2023-04-15T07:22:56.440Z,2.03
2023-04-15T07:25:23.473Z,2.03
2023-04-15T07:27:50.584Z,1.90
2023-04-15T07:30:17.477Z,1.95
2023-04-15T07:32:44.316Z,2.10
2023-04-15T07:35:11.719Z,2.13
2023-04-15T07:37:38.551Z,2.25
2023-04-15T07:40:07.293Z,2.38
2023-04-15T07:42:34.518Z,2.10
2023-04-15T07:45:01.370Z,2.20
2023-04-15T07:47:28.268Z,2.00
2023-04-15T07:49:55.469Z,2.00
2023-04-15T07:52:22.403Z,2.20
2023-04-15T07:54:49.265Z,2.42
2023-04-15T07:57:17.095Z,2.00
2023-04-15T07:59:43.887Z,2.00
2023-04-15T08:02:11.854Z,2.20
2023-04-15T08:04:39.026Z,2.25
2023-04-15T08:07:06.216Z,2.33
2023-04-15T08:09:32.995Z,2.50
2023-04-15T08:11:59.782Z,2.22
2023-04-15T08:14:27.108Z,2.40
2023-04-15T08:16:53.856Z,2.38
2023-04-15T08:19:21.244Z,2.25
2023-04-15T08:21:47.941Z,2.33
2023-04-15T08:24:14.664Z,2.50
2023-04-15T08:26:42.087Z,2.03
2023-04-15T08:29:09.281Z,2.40
2023-04-15T08:31:36.103Z,2.22
2023-04-15T08:34:02.962Z,2.38
2023-04-15T08:36:29.771Z,2.00
2023-04-15T08:38:56.676Z,2.50
2023-04-15T08:41:25.729Z,2.72
2023-04-15T08:43:54.854Z,2.40
2023-04-15T08:46:22.789Z,2.60
2023-04-15T08:48:50.218Z,2.03
2023-04-15T08:51:18.693Z,2.17
2023-04-15T08:53:47.565Z,2.50
2023-04-15T08:56:16.971Z,2.50
2023-04-15T08:58:44.930Z,2.33
2023-04-15T09:01:13.301Z,2.17
2023-04-15T09:03:40.716Z,2.10
2023-04-15T09:06:07.857Z,2.50
2023-04-15T09:08:35.930Z,2.42
2023-04-15T09:11:03.879Z,2.13
2023-04-15T09:13:31.043Z,3.00
2023-04-15T09:15:58.741Z,2.65
2023-04-15T09:18:31.092Z,2.10
2023-04-15T09:21:06.127Z,2.78
2023-04-15T09:23:33.078Z,2.58
2023-04-15T09:25:59.840Z,2.50
2023-04-15T09:28:26.722Z,2.88
2023-04-15T09:30:57.147Z,2.38
2023-04-15T09:33:26.028Z,2.63
2023-04-15T09:36:03.540Z,2.45
2023-04-15T09:38:31.396Z,2.80
2023-04-15T09:40:59.066Z,2.42
2023-04-15T09:43:40.444Z,2.65
2023-04-15T09:46:07.343Z,2.55
2023-04-15T09:48:36.886Z,2.85
2023-04-15T09:51:03.782Z,2.70
2023-04-15T09:53:34.939Z,2.90
2023-04-15T09:56:02.653Z,2.85
2023-04-15T09:58:33.668Z,2.88
2023-04-15T10:01:03.640Z,3.08
2023-04-15T10:03:42.425Z,2.90
2023-04-15T10:06:10.111Z,2.97
2023-04-15T10:08:36.964Z,2.60
2023-04-15T10:11:05.031Z,2.70
2023-04-15T10:13:37.542Z,2.55
2023-04-15T10:16:11.941Z,2.40
2023-04-15T10:18:43.860Z,2.40
2023-04-15T10:21:10.844Z,2.50
2023-04-15T10:23:38.715Z,2.42
2023-04-15T10:26:06.732Z,2.35
2023-04-15T10:28:33.575Z,2.45
2023-04-15T10:31:01.696Z,2.13
2023-04-15T10:33:28.928Z,2.60
2023-04-15T10:35:56.687Z,1.95
2023-04-15T10:38:40.480Z,2.42
2023-04-15T10:41:28.106Z,2.50
2023-04-15T10:44:01.094Z,2.42
2023-04-15T10:46:40.441Z,2.40
2023-04-15T10:49:24.482Z,2.07
2023-04-15T10:51:53.746Z,1.77
2023-04-15T10:54:26.617Z,2.25
2023-04-15T10:57:23.425Z,1.70
2023-04-15T11:00:11.307Z,2.08
2023-04-15T11:02:53.270Z,2.17
2023-04-15T11:05:22.304Z,1.50
2023-04-15T11:07:51.894Z,2.00
2023-04-15T11:10:18.693Z,1.55
2023-04-15T11:12:46.173Z,1.23
2023-04-15T11:15:45.712Z,1.30
2023-04-15T11:18:20.324Z,1.20
2023-04-15T11:20:50.616Z,1.67
2023-04-15T11:23:28.785Z,1.60
2023-04-15T11:25:59.981Z,1.30
2023-04-15T11:28:28.614Z,1.20
2023-04-15T11:30:56.620Z,1.48
2023-04-15T11:33:24.508Z,1.60
2023-04-15T11:35:54.210Z,1.30
2023-04-15T11:38:22.350Z,2.85
2023-04-15T11:40:51.429Z,3.60
2023-04-15T11:43:23.118Z,1.30
2023-04-15T11:45:58.403Z,3.80
2023-04-15T11:48:27.982Z,2.00
2023-04-15T11:50:57.006Z,5.65
2023-04-15T11:53:24.655Z,3.20
2023-04-15T11:55:53.992Z,4.88
2023-04-15T11:58:23.424Z,1.88
2023-04-15T12:00:53.137Z,0.47
2023-04-15T12:03:26.165Z,2.38
2023-04-15T12:06:19.200Z,1.40
2023-04-15T12:08:58.375Z,1.30
2023-04-15T12:11:31.456Z,1.90
2023-04-15T12:14:12.779Z,0.93
2023-04-15T12:16:49.751Z,1.20
2023-04-15T12:19:23.475Z,1.58
2023-04-15T12:21:51.074Z,1.20
2023-04-15T12:24:22.851Z,1.30
2023-04-15T12:26:53.165Z,1.50
2023-04-15T12:29:24.982Z,1.10
2023-04-15T12:31:54.509Z,0.85
2023-04-15T12:34:30.001Z,0.80
2023-04-15T12:36:57.977Z,1.00
2023-04-15T12:39:26.847Z,1.90
2023-04-15T12:41:55.327Z,2.85
2023-04-15T12:44:25.338Z,3.35
2023-04-15T12:46:55.308Z,2.40
2023-04-15T12:51:50.749Z,3.90
2023-04-15T12:54:18.598Z,5.40
2023-04-15T12:56:46.613Z,4.50
2023-04-15T12:59:14.112Z,4.50
2023-04-15T13:01:41.489Z,3.70
2023-04-15T13:04:09.085Z,2.90
2023-04-15T13:06:36.872Z,3.65
2023-04-15T13:09:05.629Z,2.33
2023-04-15T13:11:36.757Z,2.67
2023-04-15T13:14:08.831Z,1.90
2023-04-15T13:16:36.257Z,1.35
2023-04-15T13:19:04.250Z,1.38
2023-04-15T13:21:35.251Z,1.65
2023-04-15T13:24:03.079Z,1.75
2023-04-15T13:26:29.917Z,1.23
2023-04-15T13:28:56.847Z,1.00
2023-04-15T13:31:23.618Z,0.82
2023-04-15T13:33:50.325Z,0.80
2023-04-15T13:36:17.090Z,0.90
2023-04-15T13:38:43.830Z,0.80
2023-04-15T13:41:10.578Z,1.10
2023-04-15T13:43:37.658Z,2.97
2023-04-15T13:46:04.546Z,2.10
2023-04-15T13:48:31.591Z,1.27
2023-04-15T13:50:58.341Z,1.30
2023-04-15T13:53:33.907Z,1.10
2023-04-15T13:56:09.626Z,1.02
2023-04-15T13:58:37.592Z,0.90
2023-04-15T14:01:06.277Z,1.20
2023-04-15T14:03:35.053Z,1.40
2023-04-15T14:06:02.302Z,4.38
2023-04-15T14:08:30.117Z,3.85
2023-04-15T14:10:57.781Z,2.33
2023-04-15T14:13:25.292Z,2.33
2023-04-15T14:15:52.055Z,2.72
2023-04-15T14:18:18.809Z,2.53
2023-04-15T14:20:45.494Z,2.20
2023-04-15T14:23:12.217Z,2.20
2023-04-15T14:25:41.789Z,1.95
2023-04-15T14:28:08.520Z,1.48
2023-04-15T14:30:35.706Z,1.90
2023-04-15T14:33:02.792Z,1.60
2023-04-15T14:35:29.602Z,1.20
2023-04-15T14:37:56.672Z,0.70
2023-04-15T14:40:23.476Z,0.98
2023-04-15T14:42:50.402Z,0.60
2023-04-15T14:45:17.905Z,1.20
2023-04-15T14:47:45.058Z,0.75
2023-04-15T14:50:12.160Z,0.90
2023-04-15T14:52:39.074Z,0.80
2023-04-15T14:55:06.672Z,0.80
2023-04-15T14:57:33.686Z,1.00
2023-04-15T15:00:00.465Z,0.90
2023-04-15T15:02:38.513Z,0.90
2023-04-15T15:05:07.232Z,1.00
2023-04-15T15:07:34.103Z,1.30
2023-04-15T15:10:00.847Z,1.00
2023-04-15T15:12:27.540Z,0.82
2023-04-15T15:14:55.742Z,0.75
2023-04-15T15:17:22.514Z,0.82
2023-04-15T15:19:49.513Z,0.82
2023-04-15T15:22:16.296Z,1.42
2023-04-15T15:24:42.953Z,7.95
2023-04-15T15:27:10.450Z,6.00
2023-04-15T15:29:38.250Z,3.40
2023-04-15T15:32:05.272Z,2.92
2023-04-15T15:34:32.042Z,2.50
2023-04-15T15:36:58.814Z,1.88
2023-04-15T15:39:25.629Z,1.63
2023-04-15T15:41:52.407Z,1.67
2023-04-15T15:44:19.136Z,2.10
2023-04-15T15:46:46.275Z,2.10
2023-04-15T15:49:13.079Z,1.90
2023-04-15T15:51:39.863Z,1.58
2023-04-15T15:54:06.567Z,1.67
2023-04-15T15:56:34.495Z,1.50
2023-04-15T15:59:01.319Z,1.23
2023-04-15T16:01:28.371Z,1.23
2023-04-15T16:03:55.229Z,1.10
2023-04-15T16:06:22.004Z,1.05
2023-04-15T16:08:48.814Z,0.95
2023-04-15T16:11:15.638Z,0.95
2023-04-15T16:13:42.403Z,0.70
2023-04-15T16:16:09.260Z,0.80
2023-04-15T16:18:36.003Z,0.80
2023-04-15T16:21:02.807Z,0.80
2023-04-15T16:23:29.544Z,1.15
2023-04-15T16:25:56.341Z,1.20
2023-04-15T16:28:26.443Z,1.40
2023-04-15T16:30:55.409Z,1.20
2023-04-15T16:33:22.250Z,1.40
2023-04-15T16:35:48.941Z,1.30
2023-04-15T16:38:15.849Z,1.30
2023-04-15T16:40:42.591Z,1.10
2023-04-15T16:43:11.306Z,1.50
2023-04-15T16:45:38.356Z,1.60
2023-04-15T16:48:05.294Z,1.60
2023-04-15T16:50:32.041Z,1.08
2023-04-15T16:52:58.848Z,1.27
2023-04-15T16:55:25.732Z,1.55
2023-04-15T16:58:02.619Z,5.97
2023-04-15T17:00:36.269Z,8.68
2023-04-15T17:03:03.681Z,4.55
2023-04-15T17:05:33.456Z,1.63
2023-04-15T17:08:00.701Z,1.40
2023-04-15T17:10:28.164Z,1.50
2023-04-15T17:12:56.573Z,1.63
2023-04-15T17:15:23.726Z,1.35
2023-04-15T17:17:50.630Z,1.40
2023-04-15T17:20:17.627Z,1.48
2023-04-15T17:22:46.403Z,1.20
2023-04-15T17:25:13.789Z,1.13
2023-04-15T17:27:41.025Z,1.65
2023-04-15T17:30:08.392Z,2.22
2023-04-15T17:32:35.545Z,3.33
2023-04-15T17:35:06.009Z,3.40
2023-04-15T17:37:33.710Z,3.50
2023-04-15T17:40:00.694Z,3.40
2023-04-15T17:42:27.474Z,3.53
2023-04-15T17:44:54.194Z,3.40
2023-04-15T17:47:21.293Z,3.97
2023-04-15T17:49:48.020Z,3.25
2023-04-15T17:52:14.723Z,3.22
2023-04-15T17:54:41.572Z,3.28
2023-04-15T17:57:09.311Z,2.90
2023-04-15T17:59:36.112Z,3.20
2023-04-15T18:02:02.964Z,2.70
2023-04-15T18:04:29.973Z,2.63
2023-04-15T18:06:56.771Z,2.90
2023-04-15T18:09:23.531Z,2.80
2023-04-15T18:11:50.493Z,2.72
2023-04-15T18:14:27.008Z,2.33
2023-04-15T18:16:57.919Z,2.72
2023-04-15T18:19:25.831Z,2.45
2023-04-15T18:21:53.118Z,2.50
2023-04-15T18:24:19.903Z,2.25
2023-04-15T18:26:48.856Z,2.58
2023-04-15T18:29:16.403Z,3.30
2023-04-15T18:31:43.407Z,11.68
2023-04-15T18:34:10.455Z,7.55
2023-04-15T18:36:37.211Z,9.18
2023-04-15T18:39:04.707Z,9.10
2023-04-15T18:41:31.679Z,9.93
2023-04-15T18:43:58.405Z,8.50
2023-04-15T18:46:25.465Z,27.77
2023-04-15T18:48:52.191Z,11.13
2023-04-15T18:51:19.182Z,4.72
2023-04-15T18:53:46.003Z,2.47
2023-04-15T18:56:12.757Z,1.40
2023-04-15T18:59:27.105Z,1.40
2023-04-15T19:01:26.520Z,0.90
2023-04-15T19:03:53.446Z,0.50
2023-04-15T19:06:20.575Z,0.60
2023-04-15T19:08:47.386Z,0.70
2023-04-15T19:11:14.295Z,0.70
2023-04-15T19:13:41.102Z,0.60
2023-04-15T19:16:07.928Z,0.70
2023-04-15T19:18:34.632Z,0.60
2023-04-15T19:21:01.682Z,0.90
2023-04-15T19:23:28.607Z,0.80
2023-04-15T19:25:57.074Z,0.80
2023-04-15T19:28:23.827Z,1.10
2023-04-15T19:30:52.401Z,0.70
2023-04-15T19:33:19.155Z,0.80
2023-04-15T19:35:46.747Z,0.80
2023-04-15T19:38:13.422Z,0.73
2023-04-15T19:40:40.132Z,0.70
2023-04-15T19:43:06.956Z,1.00
2023-04-15T19:45:34.198Z,1.10
2023-04-15T19:48:01.118Z,1.00
2023-04-15T19:50:27.949Z,1.20
2023-04-15T19:52:54.761Z,1.00
2023-04-15T19:55:21.549Z,0.98
2023-04-15T19:57:48.272Z,1.00
2023-04-15T20:00:15.770Z,1.33
2023-04-15T20:02:42.647Z,1.10
2023-04-15T20:05:10.195Z,1.40
2023-04-15T20:07:37.319Z,1.20
2023-04-15T20:10:12.500Z,1.25
2023-04-15T20:12:50.108Z,1.30
2023-04-15T20:17:46.956Z,1.40
2023-04-15T20:20:13.884Z,1.48
2023-04-15T20:22:41.175Z,1.40
2023-04-15T20:25:08.365Z,1.60
2023-04-15T20:27:35.231Z,1.75
2023-04-15T20:30:03.393Z,1.48
2023-04-15T20:32:32.758Z,1.50
2023-04-15T20:34:59.460Z,1.10
2023-04-15T20:37:26.170Z,1.63
2023-04-15T20:39:53.031Z,1.25
2023-04-15T20:42:19.808Z,1.40
2023-04-15T20:44:46.631Z,1.92
2023-04-15T20:47:13.446Z,2.80
2023-04-15T20:49:40.456Z,2.33
2023-04-15T20:52:08.335Z,1.50
2023-04-15T20:54:35.367Z,1.60
2023-04-15T20:57:02.140Z,1.30
2023-04-15T20:59:28.966Z,0.77
2023-04-15T21:01:57.114Z,0.88
2023-04-15T21:04:24.544Z,0.77
2023-04-15T21:06:52.361Z,0.55
2023-04-15T21:09:19.148Z,1.05
2023-04-15T21:12:00.612Z,1.63
2023-04-15T21:14:28.190Z,1.20
2023-04-15T21:16:54.874Z,1.55
2023-04-15T21:19:21.815Z,1.15
2023-04-15T21:21:48.603Z,1.00
2023-04-15T21:24:15.506Z,1.10
2023-04-15T21:26:42.206Z,1.17
2023-04-15T21:29:11.436Z,1.30
2023-04-15T21:31:38.773Z,1.40
2023-04-15T21:34:05.811Z,1.50
2023-04-15T21:36:32.710Z,1.80
2023-04-15T21:39:00.160Z,1.77
2023-04-15T21:41:27.301Z,1.80
2023-04-15T21:43:54.132Z,1.58
2023-04-15T21:46:25.422Z,1.30
2023-04-15T21:48:55.864Z,1.67
2023-04-15T21:53:49.458Z,1.42
2023-04-15T21:56:16.308Z,1.63
2023-04-15T21:58:43.172Z,1.35
2023-04-15T22:01:09.992Z,1.33
2023-04-15T22:03:37.025Z,1.30
2023-04-15T22:06:04.352Z,1.23
2023-04-15T22:08:44.630Z,1.40
2023-04-15T22:11:27.848Z,1.23
2023-04-15T22:13:56.692Z,1.70
2023-04-15T22:16:25.132Z,1.52
2023-04-15T22:18:52.146Z,1.50
2023-04-15T22:21:18.881Z,1.40
2023-04-15T22:23:47.599Z,1.75
2023-04-15T22:26:14.398Z,1.67
2023-04-15T22:28:41.839Z,1.67
2023-04-15T22:31:08.723Z,1.92
2023-04-15T22:33:35.578Z,2.10
2023-04-15T22:36:02.578Z,2.10
2023-04-15T22:38:29.314Z,2.20
2023-04-15T22:40:56.076Z,2.30
2023-04-15T22:43:22.758Z,2.38
2023-04-15T22:45:54.921Z,2.83
2023-04-15T22:48:22.591Z,2.90
2023-04-15T22:50:49.760Z,2.88
2023-04-15T22:53:17.490Z,2.53
2023-04-15T22:55:48.757Z,2.22
2023-04-15T22:58:17.157Z,1.65
2023-04-15T23:00:44.466Z,1.75
2023-04-15T23:03:11.589Z,1.70
2023-04-15T23:05:40.146Z,1.30
2023-04-15T23:08:07.529Z,1.60
2023-04-15T23:10:34.336Z,1.63
2023-04-15T23:13:01.084Z,1.50
2023-04-15T23:15:27.780Z,1.35
2023-04-15T23:17:54.579Z,1.50
2023-04-15T23:20:21.340Z,1.45
2023-04-15T23:22:48.322Z,1.65
2023-04-15T23:25:15.415Z,1.40
2023-04-15T23:27:42.126Z,1.85
2023-04-15T23:30:09.052Z,1.55
2023-04-15T23:32:36.074Z,1.70
2023-04-15T23:35:03.320Z,2.13
2023-04-15T23:37:31.632Z,1.70
2023-04-15T23:39:58.474Z,1.67
2023-04-15T23:42:26.056Z,1.70
2023-04-15T23:44:53.061Z,1.83
2023-04-15T23:47:20.170Z,1.77
2023-04-15T23:49:47.170Z,1.90
2023-04-15T23:52:13.997Z,1.60
2023-04-15T23:54:40.918Z,1.67
2023-04-15T23:57:07.666Z,2.10
2023-04-15T23:59:34.481Z,1.77
